Time;durP1;ratioP1;P1;durP2;ratioP2;P2;SDS_P1;SDS_P2;PMS_P1;PMS_P2;Temp;Humidity;BMP_temperature;BMP_pressure;BME280_temperature;BME280_humidity;BME280_pressure;Samples;Min_cycle;Max_cycle;Signal;HPM_P1;HPM_P2
2024/01/12 00:01:33;;;;;;;;;;;39.10;2201.60;;;;;;4965032;28;20378;-87
2024/01/12 00:03:59;;;;;;;;;;;39.00;2201.60;;;;;;4959527;28;19906;-88
2024/01/12 00:06:25;;;;;;;;;;;38.90;2201.60;;;;;;4955688;28;19906;-86
2024/01/12 00:08:50;;;;;;;;;;;38.80;2201.60;;;;;;4955765;28;20320;-86
2024/01/12 00:11:16;;;;;;;;;;;38.60;2201.60;;;;;;4958040;28;19910;-86
2024/01/12 00:13:42;;;;;;;;;;;38.70;2201.60;;;;;;4981475;28;19906;-85
2024/01/12 00:16:08;;;;;;;;;;;38.70;2201.60;;;;;;4952057;28;19906;-86
2024/01/12 00:18:34;;;;;;;;;;;38.60;2201.60;;;;;;4953749;28;20295;-86
2024/01/12 00:20:59;;;;;;;;;;;38.70;2201.60;;;;;;4960498;28;19925;-89
2024/01/12 00:23:25;;;;;;;;;;;38.50;2201.60;;;;;;4957747;28;19906;-86
2024/01/12 00:25:51;;;;;;;;;;;38.50;2201.60;;;;;;4955849;28;20317;-86
2024/01/12 00:28:16;;;;;;;;;;;38.40;2201.60;;;;;;4967681;28;19906;-86
2024/01/12 00:30:45;;;;;;;;;;;38.40;2201.60;;;;;;4971458;28;20052;-87
2024/01/12 00:33:12;;;;;;;;;;;38.50;2201.60;;;;;;4959437;28;19907;-83
2024/01/12 00:35:37;;;;;;;;;;;38.60;2201.60;;;;;;4948384;29;20352;-86
2024/01/12 00:38:03;;;;;;;;;;;38.50;2201.60;;;;;;4954962;28;19917;-86
2024/01/12 00:40:29;;;;;;;;;;;38.60;2201.60;;;;;;4961930;28;19913;-87
2024/01/12 00:42:54;;;;;;;;;;;38.60;2201.60;;;;;;4953003;28;19922;-87
2024/01/12 00:45:20;;;;;;;;;;;38.50;2201.60;;;;;;4966320;28;19906;-87
2024/01/12 00:47:46;;;;;;;;;;;38.50;2201.60;;;;;;4954909;28;19938;-85
2024/01/12 00:50:11;;;;;;;;;;;38.60;2201.60;;;;;;4955299;28;19921;-88
2024/01/12 00:52:37;;;;;;;;;;;38.60;2201.60;;;;;;4947145;28;20343;-87
2024/01/12 00:55:03;;;;;;;;;;;38.60;2201.60;;;;;;4960391;28;19907;-85
2024/01/12 00:57:28;;;;;;;;;;;38.50;2201.60;;;;;;4954533;28;19921;-87
2024/01/12 00:59:54;;;;;;;;;;;38.40;2201.60;;;;;;4964033;28;19973;-86
2024/01/12 01:02:19;;;;;;;;;;;13.70;2201.60;;;;;;4975405;28;20317;-86
2024/01/12 01:04:45;;;;;;;;;;;13.70;2201.60;;;;;;4961305;28;19913;-86
2024/01/12 01:07:10;;;;;;;;;;;13.60;2201.60;;;;;;4960991;28;20395;-87
2024/01/12 01:09:36;;;;;;;;;;;13.60;2201.60;;;;;;4981892;28;19910;-86
2024/01/12 01:12:02;;;;;;;;;;;13.50;2201.60;;;;;;4958258;28;19906;-84
2024/01/12 01:14:27;;;;;;;;;;;13.40;2201.60;;;;;;4968980;28;19906;-86
2024/01/12 01:16:53;;;;;;;;;;;13.40;2201.60;;;;;;4954897;28;19910;-84
2024/01/12 01:19:19;;;;;;;;;;;13.30;2201.60;;;;;;4960468;28;19922;-85
2024/01/12 01:21:45;;;;;;;;;;;13.30;2201.60;;;;;;4964843;28;20101;-84
2024/01/12 01:24:10;;;;;;;;;;;13.30;2201.60;;;;;;4962641;28;20006;-86
2024/01/12 01:26:36;;;;;;;;;;;13.20;2201.60;;;;;;4954253;28;19910;-88
2024/01/12 01:29:02;;;;;;;;;;;13.10;2201.60;;;;;;4959869;28;19906;-85
2024/01/12 01:31:28;;;;;;;;;;;13.10;2201.60;;;;;;4956421;28;19911;-85
2024/01/12 01:33:54;;;;;;;;;;;13.10;2201.60;;;;;;4959701;28;19910;-85
2024/01/12 01:36:20;;;;;;;;;;;13.10;2201.60;;;;;;4962094;28;19914;-86
2024/01/12 01:38:46;;;;;;;;;;;13.10;2201.60;;;;;;4962159;28;19911;-85
2024/01/12 01:41:11;;;;;;;;;;;13.00;2201.60;;;;;;4964319;28;20360;-86
2024/01/12 01:43:37;;;;;;;;;;;13.10;2201.60;;;;;;4957264;28;20068;-86
2024/01/12 01:46:03;;;;;;;;;;;13.20;2201.60;;;;;;4955675;28;19907;-86
2024/01/12 01:48:29;;;;;;;;;;;13.10;2201.60;;;;;;4965941;28;20331;-87
2024/01/12 01:50:54;;;;;;;;;;;13.10;2201.60;;;;;;4949052;28;20280;-85
2024/01/12 01:53:20;;;;;;;;;;;13.00;2201.60;;;;;;4967490;28;19966;-86
2024/01/12 01:55:46;;;;;;;;;;;13.10;2201.60;;;;;;4954817;29;19906;-86
2024/01/12 01:58:12;;;;;;;;;;;13.00;2201.60;;;;;;4955620;28;19906;-86
2024/01/12 02:00:38;;;;;;;;;;;13.10;2201.60;;;;;;4958060;29;19911;-86
2024/01/12 02:03:04;;;;;;;;;;;12.90;2201.60;;;;;;4983721;28;19929;-85
2024/01/12 02:05:30;;;;;;;;;;;12.90;2201.60;;;;;;4959549;28;20368;-85
2024/01/12 02:07:56;;;;;;;;;;;12.90;2201.60;;;;;;4992571;28;19989;-86
2024/01/12 02:10:22;;;;;;;;;;;12.90;2201.60;;;;;;4982049;28;19902;-83
2024/01/12 02:12:47;;;;;;;;;;;0.00;2201.60;;;;;;4975899;28;19894;-86
2024/01/12 02:15:13;;;;;;;;;;;12.90;2201.60;;;;;;4964609;28;19914;-84
2024/01/12 02:20:47;;;;;;;;;;;13.00;2201.60;;;;;;5057653;23;1569913;-84
2024/01/12 02:23:16;;;;;;;;;;;13.10;2201.60;;;;;;4936394;29;19925;-85
2024/01/12 02:25:44;;;;;;;;;;;0.00;2201.60;;;;;;4922035;29;20380;-84
2024/01/12 02:28:13;;;;;;;;;;;0.00;2201.60;;;;;;4953879;28;19915;-84
2024/01/12 02:30:39;;;;;;;;;;;12.90;2201.60;;;;;;4943147;29;19943;-82
2024/01/12 02:33:08;;;;;;;;;;;12.90;2201.60;;;;;;4945076;28;19918;-85
2024/01/12 02:35:33;;;;;;;;;;;12.90;2201.60;;;;;;4938572;29;19907;-84
2024/01/12 02:37:59;;;;;;;;;;;12.90;2201.60;;;;;;4937923;29;20399;-85
2024/01/12 02:40:24;;;;;;;;;;;12.90;2201.60;;;;;;4921041;29;19914;-85
2024/01/12 02:42:50;;;;;;;;;;;0.00;2201.60;;;;;;4938490;29;19915;-84
2024/01/12 02:45:16;;;;;;;;;;;0.10;2201.60;;;;;;4921362;29;20395;-85
2024/01/12 02:47:44;;;;;;;;;;;0.10;2201.60;;;;;;4921118;29;19954;-85
2024/01/12 02:50:10;;;;;;;;;;;0.10;2201.60;;;;;;4920816;29;19926;-84
2024/01/12 02:52:36;;;;;;;;;;;0.10;2201.60;;;;;;4937994;29;20001;-84
2024/01/12 02:55:02;;;;;;;;;;;0.20;2201.60;;;;;;4920523;29;19907;-84
2024/01/12 02:57:28;;;;;;;;;;;0.30;2201.60;;;;;;4937750;29;19914;-85
2024/01/12 02:59:53;;;;;;;;;;;0.30;2201.60;;;;;;4919971;29;19907;-86
2024/01/12 03:02:19;;;;;;;;;;;0.30;2201.60;;;;;;4920708;29;20423;-82
2024/01/12 03:04:44;;;;;;;;;;;0.30;2201.60;;;;;;4920427;29;19907;-82
2024/01/12 03:07:10;;;;;;;;;;;0.30;2201.60;;;;;;4937591;29;20317;-82
2024/01/12 03:09:35;;;;;;;;;;;0.30;2201.60;;;;;;4921050;29;19914;-83
2024/01/12 03:12:01;;;;;;;;;;;0.30;2201.60;;;;;;4920699;29;19907;-81
2024/01/12 03:14:27;;;;;;;;;;;0.20;2201.60;;;;;;4937068;29;19910;-84
2024/01/12 03:16:52;;;;;;;;;;;0.30;2201.60;;;;;;4937048;29;19907;-83
2024/01/12 03:19:18;;;;;;;;;;;0.30;2201.60;;;;;;4937361;29;19907;-82
2024/01/12 03:21:43;;;;;;;;;;;0.30;2201.60;;;;;;4923478;29;19933;-83
2024/01/12 03:24:09;;;;;;;;;;;0.40;2201.60;;;;;;4936329;29;20360;-82
2024/01/12 03:26:36;;;;;;;;;;;0.40;2201.60;;;;;;4936417;29;20009;-81
2024/01/12 03:29:01;;;;;;;;;;;0.40;2201.60;;;;;;4935583;29;19922;-82
2024/01/12 03:31:27;;;;;;;;;;;0.30;2201.60;;;;;;4936361;29;19907;-83
2024/01/12 03:33:52;;;;;;;;;;;0.10;2201.60;;;;;;4936506;29;20272;-82
2024/01/12 03:36:19;;;;;;;;;;;0.20;2201.60;;;;;;4936346;29;20005;-82
2024/01/12 03:38:45;;;;;;;;;;;0.10;2201.60;;;;;;4935910;29;19962;-82
2024/01/12 03:41:10;;;;;;;;;;;0.00;2201.60;;;;;;4936235;29;19922;-83
2024/01/12 03:43:36;;;;;;;;;;;0.30;2201.60;;;;;;4935959;29;19941;-82
2024/01/12 03:46:02;;;;;;;;;;;0.40;2201.60;;;;;;4936165;29;20356;-82
2024/01/12 03:48:27;;;;;;;;;;;0.50;2201.60;;;;;;4935697;29;19936;-84
2024/01/12 03:50:53;;;;;;;;;;;0.60;2201.60;;;;;;4935830;29;20423;-83
2024/01/12 03:53:18;;;;;;;;;;;0.50;2201.60;;;;;;4935755;29;19907;-82
2024/01/12 03:55:44;;;;;;;;;;;0.40;2201.60;;;;;;4935927;29;19910;-82
2024/01/12 03:58:10;;;;;;;;;;;0.40;2201.60;;;;;;4935539;29;20365;-83
2024/01/12 04:00:35;;;;;;;;;;;0.40;2201.60;;;;;;4935590;29;19942;-84
2024/01/12 04:03:01;;;;;;;;;;;0.50;2201.60;;;;;;4935392;29;20352;-82
2024/01/12 04:05:26;;;;;;;;;;;0.40;2201.60;;;;;;4935772;29;19930;-82
2024/01/12 04:07:52;;;;;;;;;;;0.20;2201.60;;;;;;4935528;29;19915;-82
2024/01/12 04:10:18;;;;;;;;;;;0.30;2201.60;;;;;;4935606;29;20339;-82
2024/01/12 04:12:43;;;;;;;;;;;0.20;2201.60;;;;;;4935457;29;19941;-83
2024/01/12 04:15:09;;;;;;;;;;;0.40;2201.60;;;;;;4935028;29;19918;-82
2024/01/12 04:17:35;;;;;;;;;;;0.50;2201.60;;;;;;4934198;29;20416;-82
2024/01/12 04:20:00;;;;;;;;;;;0.50;2201.60;;;;;;4926401;29;19907;-83
2024/01/12 04:22:26;;;;;;;;;;;0.60;2201.60;;;;;;4935289;29;20373;-84
2024/01/12 04:24:51;;;;;;;;;;;0.60;2201.60;;;;;;4951464;29;19914;-84
2024/01/12 04:27:17;;;;;;;;;;;0.60;2201.60;;;;;;4935035;29;20013;-83
2024/01/12 04:29:42;;;;;;;;;;;0.60;2201.60;;;;;;4936438;29;19906;-83
2024/01/12 04:32:08;;;;;;;;;;;0.70;2201.60;;;;;;4935383;29;19934;-82
2024/01/12 04:34:35;;;;;;;;;;;0.70;2201.60;;;;;;4935267;29;19907;-82
2024/01/12 04:37:01;;;;;;;;;;;0.70;2201.60;;;;;;4938006;29;19972;-83
2024/01/12 04:39:27;;;;;;;;;;;0.70;2201.60;;;;;;4954743;29;19937;-82
2024/01/12 04:41:52;;;;;;;;;;;0.70;2201.60;;;;;;4955184;29;19942;-83
2024/01/12 04:44:18;;;;;;;;;;;0.70;2201.60;;;;;;4939014;29;19958;-83
2024/01/12 04:46:44;;;;;;;;;;;0.90;2201.60;;;;;;4938805;29;19913;-83
2024/01/12 04:49:09;;;;;;;;;;;0.90;2201.60;;;;;;4940664;29;20285;-81
2024/01/12 04:51:35;;;;;;;;;;;0.80;2201.60;;;;;;4938301;29;19965;-82
2024/01/12 04:54:00;;;;;;;;;;;0.80;2201.60;;;;;;4939086;29;20024;-82
2024/01/12 04:56:26;;;;;;;;;;;0.90;2201.60;;;;;;4938712;29;19913;-82
2024/01/12 04:58:52;;;;;;;;;;;0.60;2201.60;;;;;;4940493;29;19958;-83
2024/01/12 05:01:18;;;;;;;;;;;0.50;2201.60;;;;;;4935342;29;19918;-82
2024/01/12 05:03:43;;;;;;;;;;;0.30;2201.60;;;;;;4931430;29;19914;-82
2024/01/12 05:06:09;;;;;;;;;;;0.30;2201.60;;;;;;4936864;29;19954;-82
2024/01/12 05:08:36;;;;;;;;;;;0.20;2201.60;;;;;;4926974;29;20025;-83
2024/01/12 05:11:02;;;;;;;;;;;0.30;2201.60;;;;;;4935573;29;20321;-81
2024/01/12 05:13:28;;;;;;;;;;;0.50;2201.60;;;;;;4930651;29;19911;-81
2024/01/12 05:15:54;;;;;;;;;;;25.90;2201.60;;;;;;4937511;29;19906;-82
2024/01/12 05:18:20;;;;;;;;;;;0.70;2201.60;;;;;;4943437;29;19910;-83
2024/01/12 05:20:45;;;;;;;;;;;0.70;2201.60;;;;;;4931527;29;20361;-80
2024/01/12 05:23:11;;;;;;;;;;;0.80;2201.60;;;;;;4918391;29;19950;-82
2024/01/12 05:25:37;;;;;;;;;;;0.90;2201.60;;;;;;4906894;29;19907;-83
2024/01/12 05:28:03;;;;;;;;;;;0.90;2201.60;;;;;;4918975;29;19906;-82
2024/01/12 05:30:28;;;;;;;;;;;0.90;2201.60;;;;;;4913077;29;20045;-81
2024/01/12 05:32:54;;;;;;;;;;;25.60;2201.60;;;;;;4909988;29;19923;-82
2024/01/12 05:35:19;;;;;;;;;;;25.70;2201.60;;;;;;4921608;29;19911;-82
2024/01/12 05:37:45;;;;;;;;;;;25.70;2201.60;;;;;;4938853;29;19997;-82
2024/01/12 05:40:11;;;;;;;;;;;25.80;2201.60;;;;;;4921356;29;19913;-81
2024/01/12 05:42:36;;;;;;;;;;;25.80;2201.60;;;;;;4922973;29;19915;-82
2024/01/12 05:45:02;;;;;;;;;;;25.70;2201.60;;;;;;4922082;29;19907;-81
2024/01/12 05:47:27;;;;;;;;;;;25.80;2201.60;;;;;;4917269;29;20353;-83
2024/01/12 05:49:53;;;;;;;;;;;25.80;2201.60;;;;;;4934119;29;20364;-81
2024/01/12 05:52:19;;;;;;;;;;;25.80;2201.60;;;;;;4950088;29;20385;-81
2024/01/12 05:54:44;;;;;;;;;;;25.80;2201.60;;;;;;4954528;29;19906;-81
2024/01/12 05:57:10;;;;;;;;;;;25.70;2201.60;;;;;;4921919;29;19942;-81
2024/01/12 05:59:35;;;;;;;;;;;25.60;2201.60;;;;;;4922950;29;19914;-82
2024/01/12 06:02:03;;;;;;;;;;;25.60;2201.60;;;;;;4915548;29;19919;-82
2024/01/12 06:04:29;;;;;;;;;;;25.70;2201.60;;;;;;4907672;29;19918;-82
2024/01/12 06:06:54;;;;;;;;;;;25.70;2201.60;;;;;;4916029;29;19911;-81
2024/01/12 06:09:20;;;;;;;;;;;25.80;2201.60;;;;;;4933099;29;19962;-81
2024/01/12 06:11:46;;;;;;;;;;;26.00;2201.60;;;;;;4917004;29;19918;-81
2024/01/12 06:14:14;;;;;;;;;;;25.80;2201.60;;;;;;4909968;29;19914;-83
2024/01/12 06:16:40;;;;;;;;;;;25.90;2201.60;;;;;;4919390;29;19914;-83
2024/01/12 06:19:05;;;;;;;;;;;25.90;2201.60;;;;;;4920421;29;20280;-82
2024/01/12 06:21:31;;;;;;;;;;;25.80;2201.60;;;;;;4933060;29;19947;-81
2024/01/12 06:23:57;;;;;;;;;;;25.90;2201.60;;;;;;4952787;28;20257;-82
2024/01/12 06:26:22;;;;;;;;;;;26.00;2201.60;;;;;;4926601;29;19949;-81
2024/01/12 06:28:48;;;;;;;;;;;25.80;2201.60;;;;;;4952538;29;19910;-81
2024/01/12 06:31:13;;;;;;;;;;;25.80;2201.60;;;;;;4935938;28;19912;-78
2024/01/12 06:33:39;;;;;;;;;;;25.70;2201.60;;;;;;4938977;29;19974;-82
2024/01/12 06:36:05;;;;;;;;;;;25.90;2201.60;;;;;;4944436;29;19907;-82
2024/01/12 06:38:31;;;;;;;;;;;25.90;2201.60;;;;;;4948491;29;20001;-82
2024/01/12 06:40:57;;;;;;;;;;;25.90;2201.60;;;;;;4950360;29;20371;-79
2024/01/12 06:43:22;;;;;;;;;;;25.90;2201.60;;;;;;4943397;29;19911;-81
2024/01/12 06:45:48;;;;;;;;;;;26.00;2201.60;;;;;;4923756;29;19907;-79
2024/01/12 06:48:13;;;;;;;;;;;26.00;2201.60;;;;;;4949325;28;19989;-81
2024/01/12 06:50:39;;;;;;;;;;;26.00;2201.60;;;;;;4942075;28;19925;-82
2024/01/12 06:53:08;;;;;;;;;;;26.10;2201.60;;;;;;4933222;29;19917;-80
2024/01/12 06:55:36;;;;;;;;;;;26.10;2201.60;;;;;;4948723;28;20368;-78
2024/01/12 06:58:03;;;;;;;;;;;26.10;2201.60;;;;;;4927104;29;20261;-79
2024/01/12 07:00:29;;;;;;;;;;;26.10;2201.60;;;;;;4949695;28;19962;-81
2024/01/12 07:02:54;;;;;;;;;;;26.10;2201.60;;;;;;4954637;28;19918;-83
2024/01/12 07:05:20;;;;;;;;;;;26.00;2201.60;;;;;;4953671;29;19914;-83
2024/01/12 07:07:46;;;;;;;;;;;25.80;2201.60;;;;;;4927099;29;19913;-83
2024/01/12 07:10:11;;;;;;;;;;;25.60;2201.60;;;;;;4936902;29;19961;-83
2024/01/12 07:12:37;;;;;;;;;;;25.70;2201.60;;;;;;4946250;29;19907;-78
2024/01/12 07:15:04;;;;;;;;;;;25.90;2201.60;;;;;;4938798;29;19906;-78
2024/01/12 07:17:29;;;;;;;;;;;25.90;2201.60;;;;;;4945056;28;19913;-81
2024/01/12 07:19:55;;;;;;;;;;;25.90;2201.60;;;;;;4946348;29;19910;-80
2024/01/12 07:22:20;;;;;;;;;;;26.10;2201.60;;;;;;4948201;29;19930;-80
2024/01/12 07:24:46;;;;;;;;;;;26.10;2201.60;;;;;;4947090;28;19907;-79
2024/01/12 07:27:12;;;;;;;;;;;26.10;2201.60;;;;;;4945798;29;19906;-80
2024/01/12 07:29:37;;;;;;;;;;;26.20;2201.60;;;;;;4945128;29;19906;-82
2024/01/12 07:32:03;;;;;;;;;;;26.20;2201.60;;;;;;4944002;29;19907;-83
2024/01/12 07:34:28;;;;;;;;;;;26.20;2201.60;;;;;;4934323;29;19910;-78
2024/01/12 07:36:54;;;;;;;;;;;26.20;2201.60;;;;;;4922264;29;19918;-78
2024/01/12 07:39:20;;;;;;;;;;;26.40;2201.60;;;;;;4935955;29;20084;-80
2024/01/12 07:41:45;;;;;;;;;;;26.40;2201.60;;;;;;4945416;28;20266;-82
2024/01/12 07:44:12;;;;;;;;;;;26.30;2201.60;;;;;;4936444;29;19964;-83
2024/01/12 07:46:38;;;;;;;;;;;26.10;2201.60;;;;;;4949645;29;19971;-82
2024/01/12 07:49:03;;;;;;;;;;;26.20;2201.60;;;;;;4930117;29;19962;-78
2024/01/12 07:51:29;;;;;;;;;;;26.30;2201.60;;;;;;4922435;29;20066;-81
2024/01/12 07:53:54;;;;;;;;;;;26.40;2201.60;;;;;;4932219;29;19954;-79
2024/01/12 07:56:20;;;;;;;;;;;26.30;2201.60;;;;;;4946050;29;20359;-78
2024/01/12 07:58:47;;;;;;;;;;;26.30;2201.60;;;;;;4932346;29;19907;-78
2024/01/12 08:01:14;;;;;;;;;;;26.30;2201.60;;;;;;4933588;29;19960;-82
2024/01/12 08:03:43;;;;;;;;;;;26.20;2201.60;;;;;;4946828;29;20386;-84
2024/01/12 08:06:09;;;;;;;;;;;26.20;2201.60;;;;;;4928850;29;19906;-87
2024/01/12 08:08:35;;;;;;;;;;;26.20;2201.60;;;;;;4933400;29;19913;-81
2024/01/12 08:11:00;;;;;;;;;;;26.30;2201.60;;;;;;4934237;29;19908;-82
2024/01/12 08:13:26;;;;;;;;;;;26.40;2201.60;;;;;;4936521;29;19922;-80
2024/01/12 08:15:52;;;;;;;;;;;26.40;2201.60;;;;;;4928470;29;19907;-81
2024/01/12 08:18:18;;;;;;;;;;;26.50;2201.60;;;;;;4927945;29;19938;-82
2024/01/12 08:20:44;;;;;;;;;;;51.20;2227.20;;;;;;4932051;29;19977;-78
2024/01/12 08:23:10;;;;;;;;;;;51.20;2227.20;;;;;;4929457;29;20378;-79
2024/01/12 08:25:35;;;;;;;;;;;51.20;2227.20;;;;;;4929937;29;19942;-79
2024/01/12 08:28:01;;;;;;;;;;;51.20;2227.20;;;;;;4922163;29;19914;-81
2024/01/12 08:30:27;;;;;;;;;;;51.30;2227.20;;;;;;4930112;29;19906;-81
2024/01/12 08:32:52;;;;;;;;;;;51.20;2227.20;;;;;;4932972;29;20340;-81
2024/01/12 08:35:18;;;;;;;;;;;26.50;2201.60;;;;;;4943928;29;19907;-81
2024/01/12 08:37:44;;;;;;;;;;;51.20;2227.20;;;;;;4928102;29;19914;-82
2024/01/12 08:40:09;;;;;;;;;;;51.30;2227.20;;;;;;4929366;29;19914;-80
2024/01/12 08:42:37;;;;;;;;;;;51.30;2227.20;;;;;;4945913;28;20017;-78
2024/01/12 08:45:03;;;;;;;;;;;51.40;2227.20;;;;;;4930197;29;19907;-76
2024/01/12 08:47:29;;;;;;;;;;;51.40;2227.20;;;;;;4936493;29;19914;-80
2024/01/12 08:49:55;;;;;;;;;;;51.20;2227.20;;;;;;4941617;29;20019;-80
2024/01/12 08:52:20;;;;;;;;;;;51.30;2227.20;;;;;;4927918;29;20271;-77
2024/01/12 08:54:46;;;;;;;;;;;51.20;2227.20;;;;;;4943208;29;20396;-76
2024/01/12 08:57:11;;;;;;;;;;;51.30;2227.20;;;;;;4934653;29;19913;-79
2024/01/12 08:59:37;;;;;;;;;;;26.50;2201.60;;;;;;4935274;29;20288;-77
2024/01/12 09:02:03;;;;;;;;;;;26.50;2201.60;;;;;;4945791;29;19923;-85
2024/01/12 09:04:28;;;;;;;;;;;51.30;2227.20;;;;;;4935001;29;19949;-84
2024/01/12 09:06:54;;;;;;;;;;;51.40;2227.20;;;;;;4950385;29;19911;-82
2024/01/12 09:09:19;;;;;;;;;;;51.40;2227.20;;;;;;4925416;29;19910;-78
2024/01/12 09:11:45;;;;;;;;;;;51.30;2227.20;;;;;;4925464;29;20277;-80
2024/01/12 09:14:11;;;;;;;;;;;51.40;2227.20;;;;;;4951731;29;19906;-77
2024/01/12 09:16:36;;;;;;;;;;;51.30;2227.20;;;;;;4953656;29;19910;-77
2024/01/12 09:19:02;;;;;;;;;;;51.20;2227.20;;;;;;4930434;29;19907;-82
2024/01/12 09:21:28;;;;;;;;;;;51.20;2227.20;;;;;;4930342;29;19974;-78
2024/01/12 09:23:53;;;;;;;;;;;51.20;2227.20;;;;;;4931990;29;19907;-77
2024/01/12 09:26:19;;;;;;;;;;;26.50;2201.60;;;;;;4929654;29;20365;-80
2024/01/12 09:28:45;;;;;;;;;;;26.40;2201.60;;;;;;4940984;29;19911;-79
2024/01/12 09:31:10;;;;;;;;;;;26.50;2201.60;;;;;;4920147;29;19914;-88
2024/01/12 09:33:36;;;;;;;;;;;26.30;2201.60;;;;;;4930480;29;20022;-86
2024/01/12 09:36:04;;;;;;;;;;;26.40;2201.60;;;;;;4924465;29;20353;-87
2024/01/12 09:38:30;;;;;;;;;;;26.50;2201.60;;;;;;4938289;29;19913;-89
2024/01/12 09:40:58;;;;;;;;;;;26.50;2201.60;;;;;;4931859;29;20328;-80
2024/01/12 09:43:27;;;;;;;;;;;51.20;2227.20;;;;;;4930135;29;20380;-86
2024/01/12 09:45:53;;;;;;;;;;;51.40;2227.20;;;;;;4931020;29;20020;-84
2024/01/12 09:48:19;;;;;;;;;;;51.40;2227.20;;;;;;4927755;29;19946;-82
2024/01/12 09:50:46;;;;;;;;;;;51.60;2227.20;;;;;;4927143;29;19915;-78
2024/01/12 09:53:12;;;;;;;;;;;51.80;2227.20;;;;;;4931142;29;19907;-79
2024/01/12 09:55:37;;;;;;;;;;;52.00;2227.20;;;;;;4930534;29;19907;-82
2024/01/12 09:58:04;;;;;;;;;;;52.10;2227.20;;;;;;4927019;29;20195;-84
2024/01/12 10:00:31;;;;;;;;;;;52.10;2227.20;;;;;;4932199;29;19954;-84
2024/01/12 10:02:58;;;;;;;;;;;51.90;2227.20;;;;;;4933919;29;19989;-84
2024/01/12 10:05:24;;;;;;;;;;;51.80;2227.20;;;;;;4934610;29;20365;-84
2024/01/12 10:07:50;;;;;;;;;;;51.70;2227.20;;;;;;4925488;29;19953;-80
2024/01/12 10:10:15;;;;;;;;;;;51.80;2227.20;;;;;;4928406;29;19958;-82
2024/01/12 10:12:41;;;;;;;;;;;51.70;2227.20;;;;;;4927001;29;19913;-81
2024/01/12 10:15:10;;;;;;;;;;;52.00;2227.20;;;;;;4934884;29;19934;-82
2024/01/12 10:17:36;;;;;;;;;;;76.90;2227.20;;;;;;4927491;29;19950;-82
2024/01/12 10:20:03;;;;;;;;;;;76.80;2227.20;;;;;;4929448;29;19961;-85
2024/01/12 10:22:30;;;;;;;;;;;76.90;2227.20;;;;;;4933976;29;20424;-84
2024/01/12 10:24:57;;;;;;;;;;;76.90;2227.20;;;;;;4954879;28;20352;-82
2024/01/12 10:27:23;;;;;;;;;;;52.10;2227.20;;;;;;4937951;29;19954;-80
2024/01/12 10:29:48;;;;;;;;;;;52.00;2227.20;;;;;;4946978;29;20316;-82
2024/01/12 10:32:17;;;;;;;;;;;52.10;2227.20;;;;;;4932806;28;19913;-77
2024/01/12 10:34:43;;;;;;;;;;;76.80;2227.20;;;;;;4934487;29;19911;-78
2024/01/12 10:37:09;;;;;;;;;;;77.00;2227.20;;;;;;4927150;28;20001;-78
2024/01/12 10:39:38;;;;;;;;;;;77.00;2227.20;;;;;;4931440;29;20332;-80
2024/01/12 10:42:04;;;;;;;;;;;77.00;2227.20;;;;;;4934768;29;19941;-83
2024/01/12 10:44:32;;;;;;;;;;;77.10;2227.20;;;;;;4939303;29;19910;-86
2024/01/12 10:47:00;;;;;;;;;;;77.10;2227.20;;;;;;4925868;29;20472;-83
2024/01/12 10:49:28;;;;;;;;;;;77.20;2227.20;;;;;;4934474;29;19907;-84
2024/01/12 10:51:53;;;;;;;;;;;77.20;2227.20;;;;;;4940469;29;19965;-82
2024/01/12 10:54:23;;;;;;;;;;;77.30;2227.20;;;;;;4925483;29;19958;-83
2024/01/12 10:56:49;;;;;;;;;;;77.40;2227.20;;;;;;4935867;29;19906;-85
2024/01/12 10:59:15;;;;;;;;;;;77.30;2227.20;;;;;;4924498;29;19914;-85
2024/01/12 11:01:41;;;;;;;;;;;77.30;2227.20;;;;;;4935347;29;19974;-83
2024/01/12 11:04:07;;;;;;;;;;;77.60;2227.20;;;;;;4939209;29;19911;-83
2024/01/12 11:06:34;;;;;;;;;;;77.60;2227.20;;;;;;4932755;29;19907;-82
2024/01/12 11:09:01;;;;;;;;;;;77.40;2227.20;;;;;;4932445;28;19953;-82
2024/01/12 11:11:31;;;;;;;;;;;77.50;2227.20;;;;;;4926488;29;20372;-78
2024/01/12 11:13:56;;;;;;;;;;;77.70;2227.20;;;;;;4951455;29;19910;-80
2024/01/12 11:16:22;;;;;;;;;;;77.60;2227.20;;;;;;4949380;28;19907;-77
2024/01/12 11:18:48;;;;;;;;;;;77.70;2227.20;;;;;;4938018;29;19907;-79
2024/01/12 11:21:21;;;;;;;;;;;77.70;2227.20;;;;;;4944752;28;20321;-77
2024/01/12 11:23:47;;;;;;;;;;;77.70;2227.20;;;;;;4939307;29;19918;-76
2024/01/12 11:26:13;;;;;;;;;;;77.70;2227.20;;;;;;4933009;29;19910;-79
2024/01/12 11:28:39;;;;;;;;;;;77.60;2227.20;;;;;;4945682;29;20357;-79
2024/01/12 11:31:05;;;;;;;;;;;77.50;2227.20;;;;;;4932233;29;20395;-78
2024/01/12 11:33:37;;;;;;;;;;;77.60;2227.20;;;;;;4939144;28;19965;-80
2024/01/12 11:36:05;;;;;;;;;;;77.60;2227.20;;;;;;4950118;28;19910;-78
2024/01/12 11:38:40;;;;;;;;;;;77.60;2227.20;;;;;;4935572;29;20392;-78
2024/01/12 11:41:11;;;;;;;;;;;77.70;2227.20;;;;;;4934700;29;19941;-81
2024/01/12 11:43:36;;;;;;;;;;;77.70;2227.20;;;;;;4939711;29;19914;-82
2024/01/12 11:46:03;;;;;;;;;;;77.60;2227.20;;;;;;4948490;28;19914;-78
2024/01/12 11:48:28;;;;;;;;;;;102.40;2227.20;;;;;;4943320;28;19958;-80
2024/01/12 11:50:54;;;;;;;;;;;102.40;2227.20;;;;;;4946266;28;20377;-80
2024/01/12 11:53:19;;;;;;;;;;;77.50;2227.20;;;;;;4945825;28;19906;-80
2024/01/12 11:55:45;;;;;;;;;;;77.50;2227.20;;;;;;4951971;28;20283;-82
2024/01/12 11:58:12;;;;;;;;;;;77.50;2227.20;;;;;;4936585;29;19910;-82
2024/01/12 12:00:37;;;;;;;;;;;77.70;2227.20;;;;;;4925655;29;19911;-82
2024/01/12 12:03:03;;;;;;;;;;;77.60;2227.20;;;;;;4941646;29;19926;-80
2024/01/12 12:05:29;;;;;;;;;;;77.60;2227.20;;;;;;4952478;28;19933;-82
2024/01/12 12:07:54;;;;;;;;;;;102.50;2227.20;;;;;;4952389;29;19913;-80
2024/01/12 12:10:20;;;;;;;;;;;102.60;2227.20;;;;;;4941409;28;19998;-81
2024/01/12 12:12:46;;;;;;;;;;;102.80;2227.20;;;;;;4952884;29;19913;-82
2024/01/12 12:15:14;;;;;;;;;;;102.80;2227.20;;;;;;4951457;29;19907;-79
2024/01/12 12:17:44;;;;;;;;;;;102.80;2227.20;;;;;;4937898;29;19914;-81
2024/01/12 12:20:11;;;;;;;;;;;102.80;2227.20;;;;;;4947795;28;19911;-81
2024/01/12 12:22:40;;;;;;;;;;;102.70;2227.20;;;;;;4937129;29;19918;-83
2024/01/12 12:25:11;;;;;;;;;;;102.70;2227.20;;;;;;4941370;29;19918;-84
2024/01/12 12:27:38;;;;;;;;;;;102.50;2227.20;;;;;;4944126;28;20391;-82
2024/01/12 12:30:07;;;;;;;;;;;102.60;2227.20;;;;;;4941251;29;19979;-80
2024/01/12 12:32:33;;;;;;;;;;;102.70;2227.20;;;;;;4966819;28;19917;-80
2024/01/12 12:34:59;;;;;;;;;;;102.80;2227.20;;;;;;4966858;28;19915;-80
2024/01/12 12:37:24;;;;;;;;;;;102.70;2227.20;;;;;;4936733;28;20280;-79
2024/01/12 12:39:50;;;;;;;;;;;102.80;2227.20;;;;;;4931219;29;19956;-82
2024/01/12 12:42:16;;;;;;;;;;;102.90;2227.20;;;;;;4954805;28;19915;-82
2024/01/12 12:44:41;;;;;;;;;;;102.90;2227.20;;;;;;4935887;29;19907;-82
2024/01/12 12:47:07;;;;;;;;;;;102.90;2227.20;;;;;;4941944;29;19918;-83
2024/01/12 12:49:37;;;;;;;;;;;102.80;2227.20;;;;;;4930059;29;19907;-83
2024/01/12 12:52:03;;;;;;;;;;;102.80;2227.20;;;;;;4943158;28;19911;-83
2024/01/12 12:54:30;;;;;;;;;;;102.70;2227.20;;;;;;4924968;29;20361;-81
2024/01/12 12:56:56;;;;;;;;;;;102.70;2227.20;;;;;;4946431;28;20316;-81
2024/01/12 12:59:22;;;;;;;;;;;102.60;2227.20;;;;;;4925831;29;20001;-79
2024/01/12 13:01:47;;;;;;;;;;;102.50;2227.20;;;;;;4941040;29;20005;-82
2024/01/12 13:04:13;;;;;;;;;;;102.40;2227.20;;;;;;4930733;29;19965;-81
2024/01/12 13:06:39;;;;;;;;;;;102.40;2227.20;;;;;;4951693;28;19921;-81
2024/01/12 13:09:08;;;;;;;;;;;102.50;2227.20;;;;;;4927079;28;20373;-81
2024/01/12 13:11:34;;;;;;;;;;;77.70;2227.20;;;;;;4943766;28;19929;-81
2024/01/12 13:14:00;;;;;;;;;;;77.70;2227.20;;;;;;4962489;28;20364;-81
2024/01/12 13:16:25;;;;;;;;;;;77.70;2227.20;;;;;;4948330;28;19912;-80
2024/01/12 13:18:52;;;;;;;;;;;77.70;2227.20;;;;;;4938801;29;19966;-81
2024/01/12 13:21:18;;;;;;;;;;;77.70;2227.20;;;;;;4938539;29;19915;-81
2024/01/12 13:23:44;;;;;;;;;;;77.60;2227.20;;;;;;4956975;28;19906;-81
2024/01/12 13:26:09;;;;;;;;;;;77.70;2227.20;;;;;;4938768;29;19906;-81
2024/01/12 13:28:35;;;;;;;;;;;77.70;2227.20;;;;;;4940733;28;19906;-80
2024/01/12 13:31:01;;;;;;;;;;;77.70;2227.20;;;;;;4952635;28;19911;-82
2024/01/12 13:33:26;;;;;;;;;;;77.70;2227.20;;;;;;4952879;29;19910;-81
2024/01/12 13:35:52;;;;;;;;;;;77.70;2227.20;;;;;;4932528;29;19914;-81
2024/01/12 13:38:18;;;;;;;;;;;77.70;2227.20;;;;;;4950835;29;19907;-81
2024/01/12 13:40:43;;;;;;;;;;;77.70;2227.20;;;;;;4941352;29;19907;-81
2024/01/12 13:43:09;;;;;;;;;;;77.60;2227.20;;;;;;4951241;29;19948;-80
2024/01/12 13:45:35;;;;;;;;;;;77.40;2227.20;;;;;;4939989;29;19957;-81
2024/01/12 13:48:02;;;;;;;;;;;77.40;2227.20;;;;;;4931094;29;19914;-81
2024/01/12 13:50:28;;;;;;;;;;;77.30;2227.20;;;;;;4946320;28;19906;-81